Latest Coastal Weather Observations for Sunshine Coast Airport

IDQ60701

Issued at 12:43 am EST Friday 7 October 2022 (issued every 10 minutes, with the page automatically refreshed every 10 minutes)

About coastal observations | Map of coastal stations | Coastal observations for QLD | Marine services | Other Formats
Station Details ID: 040861 Name: SUNSHINE COAST AIRPORT Lat: -26.60 Lon: 153.09 Height: 3.42 m
Data from the previous 72 hours. | See also: Recent months at Sunshine Coast Airport
Date/Time
EST
Wind Sea
Height
m
Swell Vis
km
Cloud Weather Temp
°C
Press
MSL
hPa
Rain since
9am
mm
Dir  Spd
kts
Gust
kts
Height
m
Period
s
Dir
07/12:30am SW 5 6 - - - - 10 Partly cloudy - 16.9 1020.8 0.2
07/12:00am SW 4 5 - - - - 10 Cloudy - 16.7 1021.1 0.2
 
Date/Time
EST
Wind Sea
Height
m
Swell Vis
km
Cloud Weather Temp
°C
Press
MSL
hPa
Rain since
9am
mm
Dir  Spd
kts
Gust
kts
Height
m
Period
s
Dir
06/11:30pm SW 5 8 - - - - 10 Partly cloudy - 16.7 1021.4 0.2
06/11:00pm WSW 6 8 - - - - 10 Partly cloudy - 16.5 1021.5 0.2
06/10:30pm WNW 4 5 - - - - 10 Partly cloudy - 16.8 1021.7 0.2
06/10:00pm NW 4 6 - - - - 10 Partly cloudy - 17.3 1021.9 0.2
06/09:30pm NNW 6 7 - - - - 10 Partly cloudy - 17.3 1022.1 0.2
06/09:00pm N 8 11 - - - - 10 Cloudy Showers 17.4 1022.1 0.2
06/08:56pm N 9 11 - - - - 10 Partly cloudy - 17.4 1022.1 0.2
06/08:31pm E 13 18 - - - - 6 Partly cloudy - 18.6 1022.3 0.2
06/08:30pm E 13 18 - - - - 8 Partly cloudy - 18.7 1022.2 0.0
06/08:00pm NE 7 8 - - - - 10 Partly cloudy - 20.2 1021.9 0.0
06/07:30pm ENE 7 9 - - - - 10 Partly cloudy - 20.0 1021.6 0.0
06/07:00pm ENE 7 10 - - - - 10 Cloudy - 19.9 1021.0 0.0
06/06:30pm E 7 9 - - - - 10 Partly cloudy - 19.9 1020.7 0.0
06/06:00pm ENE 8 9 - - - - 10 Mostly cloudy - 19.8 1020.5 0.0
06/05:30pm ENE 7 9 - - - - 10 Partly cloudy - 20.2 1020.3 0.0
06/05:00pm ENE 9 11 - - - - 10 Cloudy - 20.6 1019.9 0.0
06/04:30pm ENE 9 11 - - - - 10 Partly cloudy - 20.9 1019.6 0.0
06/04:00pm E 7 9 - - - - 10 Cloudy - 21.3 1019.7 0.0
06/03:30pm E 7 9 - - - - 10 Cloudy - 21.4 1019.6 0.0
06/03:00pm E 7 10 - - - - 10 Cloudy - 21.5 1019.6 0.0
06/02:30pm E 8 10 - - - - 10 Cloudy - 21.5 1019.6 0.0
06/02:00pm E 7 8 - - - - 10 Cloudy - 21.5 1020.0 0.0
06/01:30pm E 7 9 - - - - 10 Cloudy - 22.1 1020.2 0.0
06/01:00pm E 8 11 - - - - 10 Partly cloudy - 22.1 1020.6 0.0
06/12:30pm ESE 7 10 - - - - 10 Cloudy - 22.1 1021.0 0.0
06/12:00pm SE 7 8 - - - - 10 Cloudy - 21.5 1021.4 0.0
06/11:30am SE 7 8 - - - - 10 Cloudy - 21.1 1021.8 0.0
06/11:00am SE 7 10 - - - - 10 Partly cloudy - 21.2 1022.2 0.0
06/10:30am SSE 7 9 - - - - 10 Partly cloudy - 20.7 1022.4 0.0
06/10:00am S 6 9 - - - - 10 Partly cloudy - 20.4 1022.5 0.0
06/09:30am SSE 4 6 - - - - 10 Partly cloudy - 19.9 1022.5 0.0
06/09:00am S 6 8 - - - - 10 Cloudy - 19.4 1022.5 2.2
06/08:30am SSW 8 10 - - - - 10 Partly cloudy - 18.9 1022.5 2.2
06/08:00am S 8 10 - - - - 10 Partly cloudy - 18.4 1022.5 2.2
06/07:30am SSW 9 11 - - - - 10 Partly cloudy - 18.1 1022.6 2.2
06/07:00am S 8 10 - - - - 10 Partly cloudy - 17.6 1022.3 2.2
06/06:30am SSW 7 10 - - - - 10 Partly cloudy - 17.0 1022.1 2.2
06/06:00am SW 8 9 - - - - 10 Cloudy Showers 16.6 1021.8 2.2
06/05:30am SW 7 9 - - - - 10 Partly cloudy - 16.6 1021.5 2.2
06/05:00am SW 7 10 - - - - 10 Partly cloudy - 16.6 1021.1 2.2
06/04:30am NW 5 7 - - - - 10 Partly cloudy - 16.3 1020.8 1.8
06/04:00am W 5 7 - - - - 10 Partly cloudy - 16.4 1020.5 1.8
06/03:30am WSW 4 6 - - - - 10 Cloudy - 16.3 1020.3 1.8
06/03:00am WSW 5 7 - - - - 10 Cloudy - 16.4 1020.2 1.8
06/02:30am SW 7 8 - - - - 10 Partly cloudy - 16.4 1020.4 1.8
06/02:00am WSW 6 7 - - - - 10 Partly cloudy - 16.3 1020.7 1.8
06/01:30am SW 6 8 - - - - 10 Partly cloudy - 16.4 1021.3 1.8
06/01:00am W 6 7 - - - - 10 Partly cloudy - 16.4 1021.7 1.8
06/12:30am SW 6 8 - - - - 10 Cloudy - 16.6 1022.1 1.8
06/12:00am SW 6 8 - - - - 10 Cloudy - 16.7 1022.2 1.8
 
Date/Time
EST
Wind Sea
Height
m
Swell Vis
km
Cloud Weather Temp
°C
Press
MSL
hPa
Rain since
9am
mm
Dir  Spd
kts
Gust
kts
Height
m
Period
s
Dir
05/11:30pm WSW 6 7 - - - - 10 Partly cloudy - 16.8 1022.4 1.8
05/11:00pm SW 4 7 - - - - 10 Partly cloudy - 16.7 1022.6 1.8
05/10:30pm ENE 9 13 - - - - 10 Partly cloudy - 18.8 1022.6 1.8
05/10:00pm ENE 9 11 - - - - 10 Partly cloudy - 17.6 1022.9 1.8
05/09:30pm WSW 7 8 - - - - 10 Partly cloudy - 16.8 1023.1 1.4
05/09:00pm NNW 4 9 - - - - 10 Cloudy Rain 16.7 1023.2 1.4
05/08:30pm ENE 5 8 - - - - 10 Partly cloudy - 17.5 1023.3 1.4
05/08:00pm SW 7 9 - - - - 10 Partly cloudy - 17.0 1022.8 1.4
05/07:30pm SE 6 8 - - - - 10 Partly cloudy - 17.7 1022.5 1.4
05/07:00pm SSE 6 8 - - - - 10 Partly cloudy - 17.1 1022.3 1.2
05/06:30pm SE 8 10 - - - - 9 Partly cloudy - 17.5 1022.4 1.2
05/06:00pm SSE 7 10 - - - - 10 Cloudy - 17.5 1021.9 1.2
05/05:30pm S 8 10 - - - - 10 Cloudy - 17.5 1022.1 1.2
05/05:00pm ENE 1 5 - - - - 10 Partly cloudy - 18.2 1021.3 1.2
05/04:43pm ENE 3 5 - - - - 10 Partly cloudy - 17.9 1021.3 1.2
05/04:32pm E 5 7 - - - - 6 Partly cloudy - 17.9 1021.1 1.2
05/04:30pm E 5 7 - - - - 8 Partly cloudy - 18.0 1021.0 1.2
05/04:00pm SW 4 5 - - - - 10 Partly cloudy - 19.3 1021.1 1.0
05/03:30pm W 4 6 - - - - 10 Cloudy - 19.4 1021.0 1.0
05/03:00pm NW 4 6 - - - - 10 Mostly cloudy Recent precip. 19.0 1021.2 1.0
05/02:30pm NNE 8 10 - - - - 10 Partly cloudy - 18.1 1021.4 1.0
05/02:25pm N 9 12 - - - - 10 Partly cloudy - 18.2 1021.5 1.0
05/02:08pm NE 7 13 - - - - 6 Partly cloudy - 17.5 1021.5 1.0
05/02:00pm N 5 8 - - - - 10 Partly cloudy - 17.8 1021.6 1.0
05/01:42pm NNE 1 4 - - - - 10 Partly cloudy - 18.0 1021.9 1.0
05/01:30pm ENE 3 4 - - - - 5 Partly cloudy - 17.5 1022.0 1.0
05/01:00pm SE 5 8 - - - - 5 Partly cloudy - 18.4 1022.2 0.2
05/12:58pm SSE 6 8 - - - - 6 Partly cloudy - 18.4 1022.2 0.2
05/12:30pm S 8 10 - - - - 10 Partly cloudy - 20.1 1022.3 0.0
05/12:00pm SE 10 13 - - - - 10 Cloudy - 19.6 1022.6 0.0
05/11:30am SE 9 16 - - - - 10 Partly cloudy - 20.4 1022.8 0.0
05/11:00am SE 9 11 - - - - 10 Partly cloudy - 21.2 1022.9 0.0
05/10:30am SE 9 11 - - - - 10 Cloudy - 21.3 1023.3 0.0
05/10:00am SE 9 11 - - - - 10 Partly cloudy - 21.8 1023.2 0.0
05/09:30am SE 9 11 - - - - 10 - - 21.8 1023.4 0.0
05/09:00am SE 8 12 - - - - 10 Partly cloudy - 20.8 1023.3 0.0
05/08:30am SSE 6 8 - - - - 10 Cloudy - 20.1 1023.5 0.0
05/08:00am S 7 9 - - - - 10 Partly cloudy - 19.5 1023.2 0.0
05/07:30am SSW 7 10 - - - - 10 - - 18.6 1023.3 0.0
05/07:00am WSW 4 5 - - - - 10 - - 15.4 1023.1 0.0
05/06:30am SW 4 5 - - - - 10 - - 13.1 1022.8 0.0
05/06:00am W 3 4 - - - - 10 - - 11.5 1022.6 0.0
05/05:30am WNW 5 5 - - - - 10 - - 10.7 1022.4 0.0
05/05:00am W 4 5 - - - - 10 - - 10.6 1021.9 0.0
05/04:30am W 4 4 - - - - 10 - - 10.9 1021.5 0.0
05/04:00am WSW 3 4 - - - - 10 Partly cloudy - 11.1 1021.4 0.0
05/03:30am WSW 3 4 - - - - 10 Partly cloudy - 11.2 1021.3 0.0
05/03:00am WSW 4 4 - - - - 10 Mostly clear - 11.1 1021.1 0.0
05/02:30am W 4 5 - - - - 10 - - 11.3 1021.2 0.0
05/02:00am W 3 5 - - - - 10 Partly cloudy - 11.5 1021.2 0.0
05/01:30am W 4 5 - - - - 10 - - 11.5 1021.3 0.0
05/01:00am WNW 3 5 - - - - 10 - - 11.8 1021.3 0.0
05/12:30am W 3 4 - - - - 10 - - 12.2 1021.7 0.0
05/12:00am W 4 5 - - - - 10 - - 12.5 1021.9 0.0
 
Date/Time
EST
Wind Sea
Height
m
Swell Vis
km
Cloud Weather Temp
°C
Press
MSL
hPa
Rain since
9am
mm
Dir  Spd
kts
Gust
kts
Height
m
Period
s
Dir
04/11:30pm WSW 3 4 - - - - 10 - - 13.3 1022.2 0.0
04/11:00pm WSW 5 6 - - - - 10 - - 13.4 1022.2 0.0
04/10:30pm WSW 5 7 - - - - 10 - - 13.7 1022.3 0.0
04/10:00pm W 5 7 - - - - 10 - - 14.1 1022.2 0.0
04/09:30pm NE 8 10 - - - - 10 - - 18.0 1022.5 0.0
04/09:00pm NE 9 11 - - - - 10 - - 18.4 1022.5 0.0
04/08:30pm ENE 9 12 - - - - 10 - - 18.9 1022.4 0.0
04/08:00pm ENE 9 10 - - - - 10 - - 18.7 1022.2 0.0
04/07:30pm ENE 9 12 - - - - 10 - - 19.0 1021.9 0.0
04/07:00pm ENE 8 10 - - - - 10 - - 18.9 1021.9 0.0
04/06:30pm E 10 13 - - - - 10 Partly cloudy - 19.2 1021.4 0.0
04/06:00pm ENE 10 12 - - - - 10 - - 19.2 1021.2 0.0
04/05:30pm ENE 9 12 - - - - 10 - - 19.5 1021.0 0.0
04/05:00pm ENE 10 13 - - - - 10 Partly cloudy - 20.4 1020.8 0.0
04/04:30pm ENE 9 11 - - - - 10 Cloudy - 20.5 1020.8 0.0
04/04:00pm ENE 8 10 - - - - 10 Cloudy - 20.6 1020.6 0.0
04/03:30pm ENE 8 11 - - - - 10 Cloudy - 20.9 1020.5 0.0
04/03:00pm ENE 10 13 - - - - 10 - - 21.5 1020.4 0.0
04/02:30pm ENE 10 12 - - - - 10 - - 22.1 1020.4 0.0
04/02:00pm ENE 9 11 - - - - 10 - - 22.5 1020.5 0.0
04/01:30pm E 9 12 - - - - 10 - - 22.0 1020.7 0.0
04/01:00pm E 9 11 - - - - 10 - - 22.2 1021.1 0.0
04/12:30pm E 9 11 - - - - 10 - - 22.4 1021.5 0.0
04/12:00pm ESE 9 11 - - - - 10 - - 21.7 1022.0 0.0
04/11:30am ESE 8 10 - - - - 10 - - 21.6 1022.2 0.0
04/11:00am ESE 8 10 - - - - 10 - - 21.7 1022.5 0.0
04/10:30am SE 9 12 - - - - 10 - - 21.4 1022.8 0.0
04/10:00am SE 9 11 - - - - 10 - - 20.7 1023.1 0.0
04/09:30am SSE 7 10 - - - - 10 Partly cloudy - 20.9 1023.3 0.0
04/09:00am SSW 8 10 - - - - 10 Cloudy - 19.7 1023.3 0.2
04/08:30am SSW 8 9 - - - - 10 Cloudy - 18.8 1023.3 0.2
04/08:00am SSW 9 11 - - - - 10 Cloudy - 18.1 1023.1 0.2
04/07:30am SSW 7 9 - - - - 10 Cloudy - 17.6 1023.0 0.2
04/07:00am SSW 9 11 - - - - 10 Cloudy - 17.1 1022.6 0.2
04/06:30am SW 5 8 - - - - 10 Cloudy - 16.8 1022.2 0.2
04/06:00am SW 5 7 - - - - 10 Cloudy - 16.2 1022.0 0.2
04/05:30am SSW 7 10 - - - - 10 Partly cloudy - 16.3 1021.8 0.2
04/05:00am WSW 3 5 - - - - 10 Partly cloudy - 15.5 1021.2 0.2
04/04:30am SW 6 7 - - - - 10 Cloudy - 15.6 1020.8 0.2
04/04:00am WSW 3 5 - - - - 10 Cloudy - 15.2 1020.5 0.2
04/03:30am W 5 6 - - - - 10 Cloudy - 15.1 1020.1 0.2
04/03:00am WSW 4 6 - - - - 10 Cloudy - 15.2 1020.0 0.2
04/02:30am SW 5 7 - - - - 10 Partly cloudy - 15.2 1020.0 0.2
04/02:00am WSW 5 7 - - - - 10 Cloudy - 15.0 1020.1 0.2
04/01:30am WSW 5 6 - - - - 10 Cloudy - 15.0 1020.3 0.2
04/01:00am WSW 7 10 - - - - 10 Cloudy - 15.3 1020.5 0.2

Other formats

Comma delimited format used in spreadsheet applications
http://www.bom.gov.au/fwo/IDQ60701/IDQ60701.94569.axf

JavaScript Object Notation format (JSON) in row-major order
http://www.bom.gov.au/fwo/IDQ60701/IDQ60701.94569.json

Data quality

Most of these data are generated automatically and are frequently updated. Quality checks on data are not normally performed. It is possible for incorrect values to appear. Refer to information at About Latest Weather Observations and please check the disclaimer before using these data.